Saturday, August 18, 2018, 2:52 AM GMT
Back to Local

CYSJ, Saint John, N. B.

Location: , , Canada Lat: 45.333
Local Time: 2:52 AM GMT ( 2:52 GMT) Lon: -65.883
Time Zone: GMT Elev: 337 ft

Show me the last for .
Show Coded

Time T Td Feel RH Dir Speed Gust Alt SLP Vis Weather Sky Remarks
2018-08-18 02:40 59 59 - 100 210° 7 - 30.01 30.01 1 BR OVC002 None
2018-08-18 02:17 59 59 - 100 200° 6 - 30.01 30.02 0 BR OVC002 None
2018-08-18 02:00 59 59 - 100 210° 6 - 30.02 30.02 1 BR OVC002 None
2018-08-18 01:47 59 59 - 100 200° 6 - 30.02 30.03 2 BR OVC002 None
2018-08-18 01:27 57 57 - 100 200° 5 - 30.02 30.03 10 SCT002 BKN310 None
2018-08-18 01:00 59 57 - 93 200° 3 - 30.03 30.03 15 FEW032 BKN310 None
2018-08-18 00:00 59 55 - 87 210° 6 - 30.02 30.03 15 SCT310 None
2018-08-17 23:00 63 55 - 77 220° 7 - 30.02 30.03 15 FEW032 BKN310 None
2018-08-17 22:00 68 54 - 60 220° 9 - 30.03 30.03 15 FEW032 BKN300 None
2018-08-17 21:00 70 54 - 56 200° 10 - 30.03 30.04 15 FEW032 BKN300 None
2018-08-17 20:00 72 55 76 56 220° 12 - 30.05 30.06 15 FEW032 BKN300 None
2018-08-17 19:00 72 55 76 56 210° 10 - 30.06 30.06 15 FEW032 BKN300 None
2018-08-17 18:00 72 59 76 64 210° 10 - 30.08 30.08 15 FEW032 BKN300 None
2018-08-17 17:00 72 57 76 60 210° 9 - 30.08 30.09 15 FEW032 SCT300 None
2018-08-17 16:00 72 57 76 60 180° 5 - 30.09 30.10 15 SCT040 SCT300 None
2018-08-17 15:00 70 55 - 60 170° 5 - 30.11 30.11 15 BKN031TCU None
2018-08-17 14:00 68 55 - 64 180° 3 - 30.12 30.13 15 FEW020 SCT300 None
2018-08-17 13:00 66 55 - 68 100° 5 - 30.13 30.14 15 FEW015 SCT300 None
2018-08-17 12:00 63 55 - 77 - Calm - 30.14 30.14 15 FEW005 SCT300 None
2018-08-17 11:00 57 57 - 100 60° 2 - 30.12 30.13 15 FEW002 SCT300 None
2018-08-17 10:00 54 54 - 100 30° 3 - 30.11 30.11 15 FEW004 BKN290 None
2018-08-17 09:28 55 55 - 100 30° 3 - 30.11 30.11 15 SCT005 BKN290 None
2018-08-17 09:00 55 54 - 93 50° 6 - 30.11 30.11 15 BKN007 None
2018-08-17 08:00 57 55 - 93 - Calm - 30.09 30.09 15 BKN008 None
2018-08-17 07:00 59 57 - 93 10° 3 - 30.08 30.09 15 OVC010 None
2018-08-17 06:00 57 55 - 93 50° 6 - 30.07 30.08 15 BKN010 OVC072 None
2018-08-17 05:00 59 57 - 93 40° 6 - 30.06 30.07 15 BKN011 BKN072 None
2018-08-17 04:00 59 57 - 93 40° 3 - 30.06 30.06 15 BKN011 BKN072 None
2018-08-17 03:00 61 59 - 93 50° 7 - 30.06 30.06 15 OVC011 None

Support USWX by starting your Amazon purchase here.